createdAt,value
2017-07-09T00:00:19.717Z,18.67
2017-07-09T00:02:47.287Z,20.50
2017-07-09T00:05:14.817Z,19.07
2017-07-09T00:07:42.731Z,19.67
2017-07-09T00:10:10.272Z,19.33
2017-07-09T00:12:37.796Z,18.17
2017-07-09T00:15:05.364Z,19.20
2017-07-09T00:17:32.891Z,18.73
2017-07-09T00:20:00.566Z,18.10
2017-07-09T00:22:28.487Z,19.93
2017-07-09T00:24:56.048Z,20.20
2017-07-09T00:27:23.590Z,20.67
2017-07-09T00:29:51.174Z,22.10
2017-07-09T00:32:18.745Z,20.93
2017-07-09T00:34:46.276Z,21.67
2017-07-09T00:37:13.814Z,22.50
2017-07-09T00:39:41.382Z,21.97
2017-07-09T00:42:08.943Z,23.10
2017-07-09T00:44:36.460Z,22.50
2017-07-09T00:47:04.394Z,22.97
2017-07-09T00:49:31.932Z,24.77
2017-07-09T00:51:59.464Z,26.13
2017-07-09T00:54:27.017Z,25.20
2017-07-09T00:56:54.557Z,31.13
2017-07-09T00:59:22.510Z,24.90
2017-07-09T01:01:50.040Z,25.27
2017-07-09T01:04:17.570Z,23.97
2017-07-09T01:06:45.122Z,30.70
2017-07-09T01:09:12.652Z,30.47
2017-07-09T01:11:40.229Z,26.90
2017-07-09T01:14:07.767Z,26.67
2017-07-09T01:16:35.315Z,28.00
2017-07-09T01:19:02.856Z,28.93
2017-07-09T01:21:30.412Z,29.33
2017-07-09T01:23:57.946Z,26.00
2017-07-09T01:26:25.507Z,26.67
2017-07-09T01:28:53.055Z,27.80
2017-07-09T01:31:20.577Z,27.80
2017-07-09T01:33:48.123Z,26.60
2017-07-09T01:36:15.637Z,25.73
2017-07-09T01:38:43.182Z,26.00
2017-07-09T01:41:10.701Z,25.53
2017-07-09T01:43:38.252Z,26.70
2017-07-09T01:46:05.778Z,27.07
2017-07-09T01:48:33.307Z,27.83
2017-07-09T01:51:00.843Z,29.00
2017-07-09T01:53:28.365Z,27.60
2017-07-09T01:55:55.908Z,27.37
2017-07-09T01:58:23.436Z,27.00
2017-07-09T02:00:51.000Z,26.87
2017-07-09T02:03:18.531Z,29.10
2017-07-09T02:05:46.049Z,27.57
2017-07-09T02:08:13.601Z,28.47
2017-07-09T02:10:41.136Z,26.73
2017-07-09T02:13:08.691Z,29.20
2017-07-09T02:15:36.224Z,29.20
2017-07-09T02:18:03.780Z,27.43
2017-07-09T02:20:31.317Z,25.60
2017-07-09T02:22:58.852Z,25.80
2017-07-09T02:25:26.413Z,30.70
2017-07-09T02:27:53.930Z,31.40
2017-07-09T02:30:21.482Z,31.73
2017-07-09T02:32:49.026Z,33.57
2017-07-09T02:35:16.573Z,28.90
2017-07-09T02:37:44.097Z,29.80
2017-07-09T02:40:11.650Z,31.30
2017-07-09T02:42:39.188Z,33.47
2017-07-09T02:45:06.719Z,33.70
2017-07-09T02:47:34.268Z,30.30
2017-07-09T02:50:01.799Z,30.53
2017-07-09T02:52:29.343Z,31.90
2017-07-09T02:54:56.883Z,30.10
2017-07-09T02:57:24.437Z,35.47
2017-07-09T02:59:51.977Z,33.53
2017-07-09T03:02:19.941Z,31.93
2017-07-09T03:04:47.859Z,31.53
2017-07-09T03:07:15.385Z,34.70
2017-07-09T03:09:42.945Z,33.77
2017-07-09T03:12:10.472Z,33.47
2017-07-09T03:14:38.008Z,30.80
2017-07-09T03:17:05.545Z,29.47
2017-07-09T03:19:33.106Z,30.37
2017-07-09T03:22:00.654Z,32.23
2017-07-09T03:24:28.207Z,33.60
2017-07-09T03:26:55.731Z,33.73
2017-07-09T03:29:23.290Z,36.10
2017-07-09T03:31:51.265Z,34.00
2017-07-09T03:34:19.188Z,31.90
2017-07-09T03:36:46.730Z,33.17
2017-07-09T03:39:14.273Z,36.30
2017-07-09T03:41:41.817Z,32.70
2017-07-09T03:44:09.361Z,36.00
2017-07-09T03:46:37.303Z,33.40
2017-07-09T03:49:04.854Z,33.17
2017-07-09T03:51:32.376Z,34.43
2017-07-09T03:53:59.940Z,35.97
2017-07-09T03:56:27.464Z,35.83
2017-07-09T03:58:55.399Z,36.27
2017-07-09T04:01:22.947Z,32.37
2017-07-09T04:03:50.502Z,32.27
2017-07-09T04:06:18.041Z,36.80
2017-07-09T04:08:45.607Z,34.40
2017-07-09T04:11:13.173Z,34.40
2017-07-09T04:13:40.719Z,34.97
2017-07-09T04:16:08.294Z,33.90
2017-07-09T04:18:35.851Z,35.03
2017-07-09T04:21:03.404Z,34.97
2017-07-09T04:23:30.937Z,32.47
2017-07-09T04:25:58.488Z,32.77
2017-07-09T04:28:26.026Z,33.10
2017-07-09T04:30:53.984Z,34.77
2017-07-09T04:33:21.909Z,36.60
2017-07-09T04:35:49.445Z,36.90
2017-07-09T04:38:16.999Z,34.13
2017-07-09T04:40:44.533Z,37.20
2017-07-09T04:43:12.463Z,38.37
2017-07-09T04:45:39.988Z,37.87
2017-07-09T04:48:07.541Z,38.70
2017-07-09T04:50:35.089Z,37.30
2017-07-09T04:53:02.630Z,40.87
2017-07-09T04:55:30.557Z,39.87
2017-07-09T04:57:58.102Z,42.17
2017-07-09T05:00:25.649Z,40.17
2017-07-09T05:02:53.190Z,37.43
2017-07-09T05:05:20.736Z,37.60
2017-07-09T05:07:48.655Z,43.70
2017-07-09T05:10:16.216Z,41.23
2017-07-09T05:12:43.745Z,42.50
2017-07-09T05:15:11.302Z,42.30
2017-07-09T05:17:38.830Z,43.67
2017-07-09T05:20:06.352Z,40.43
2017-07-09T05:22:33.912Z,40.03
2017-07-09T05:25:01.453Z,40.03
2017-07-09T05:27:28.999Z,38.83
2017-07-09T05:29:56.528Z,38.83
2017-07-09T05:32:24.082Z,40.63
2017-07-09T05:34:51.996Z,38.80
2017-07-09T05:37:19.559Z,46.17
2017-07-09T05:39:47.106Z,43.30
2017-07-09T05:42:14.631Z,39.93
2017-07-09T05:44:42.569Z,44.20
2017-07-09T05:47:10.104Z,41.97
2017-07-09T05:49:37.658Z,43.43
2017-07-09T05:52:05.184Z,43.80
2017-07-09T05:54:32.740Z,43.20
2017-07-09T05:57:00.271Z,45.00
2017-07-09T05:59:27.820Z,44.37
2017-07-09T06:01:55.349Z,42.40
2017-07-09T06:04:22.881Z,39.23
2017-07-09T06:06:50.448Z,42.80
2017-07-09T06:09:17.990Z,43.97
2017-07-09T06:11:45.533Z,38.63
2017-07-09T06:14:13.076Z,38.73
2017-07-09T06:16:40.684Z,37.97
2017-07-09T06:19:08.207Z,38.80
2017-07-09T06:21:35.752Z,36.67
2017-07-09T06:24:03.345Z,36.33
2017-07-09T06:26:30.885Z,34.93
2017-07-09T06:28:58.441Z,38.00
2017-07-09T06:31:26.370Z,36.70
2017-07-09T06:33:53.938Z,36.40
2017-07-09T06:36:21.471Z,37.90
2017-07-09T06:38:49.013Z,33.93
2017-07-09T06:41:16.578Z,34.37
2017-07-09T06:43:44.105Z,37.13
2017-07-09T06:46:12.067Z,33.50
2017-07-09T06:48:40.001Z,35.67
2017-07-09T06:51:07.546Z,34.17
2017-07-09T06:53:35.072Z,34.20
2017-07-09T06:56:02.616Z,35.50
2017-07-09T06:58:30.155Z,35.40
2017-07-09T07:00:57.676Z,35.00
2017-07-09T07:03:25.255Z,36.53
2017-07-09T07:05:52.805Z,37.87
2017-07-09T07:08:20.345Z,36.17
2017-07-09T07:10:48.267Z,34.27
2017-07-09T07:13:16.228Z,33.63
2017-07-09T07:15:43.761Z,32.50
2017-07-09T07:18:11.371Z,37.30
2017-07-09T07:20:38.892Z,36.83
2017-07-09T07:23:06.419Z,36.80
2017-07-09T07:25:33.967Z,34.97
2017-07-09T07:28:01.508Z,35.87
2017-07-09T07:30:31.731Z,34.13
2017-07-09T07:32:59.265Z,34.13
2017-07-09T07:35:27.224Z,39.70
2017-07-09T07:37:54.756Z,40.70
2017-07-09T07:40:22.338Z,39.90
2017-07-09T07:42:49.871Z,39.67
2017-07-09T07:45:17.427Z,41.70
2017-07-09T07:47:44.968Z,39.77
2017-07-09T07:50:12.504Z,38.40
2017-07-09T07:52:40.081Z,37.20
2017-07-09T07:55:07.626Z,36.50
2017-07-09T07:57:35.168Z,36.50
2017-07-09T08:00:02.695Z,34.53
2017-07-09T08:02:30.237Z,34.03
2017-07-09T08:04:57.762Z,34.70
2017-07-09T08:07:25.287Z,35.27
2017-07-09T08:09:53.223Z,34.23
2017-07-09T08:12:20.753Z,35.70
2017-07-09T08:14:48.300Z,36.40
2017-07-09T08:17:15.833Z,35.40
2017-07-09T08:19:43.411Z,40.17
2017-07-09T08:22:10.945Z,37.77
2017-07-09T08:24:38.887Z,37.40
2017-07-09T08:27:06.417Z,35.37
2017-07-09T08:29:33.939Z,37.37
2017-07-09T08:32:01.497Z,36.40
2017-07-09T08:34:29.012Z,35.07
2017-07-09T08:36:56.552Z,37.37
2017-07-09T08:39:24.073Z,36.43
2017-07-09T08:41:51.653Z,35.17
2017-07-09T08:44:19.197Z,39.30
2017-07-09T08:46:46.742Z,35.37
2017-07-09T08:49:14.684Z,37.23
2017-07-09T08:51:42.270Z,32.77
2017-07-09T08:54:09.781Z,33.90
2017-07-09T08:56:37.342Z,33.93
2017-07-09T08:59:04.936Z,32.43
2017-07-09T09:01:32.525Z,36.77
2017-07-09T09:04:00.158Z,31.70
2017-07-09T09:06:27.711Z,31.13
2017-07-09T09:08:55.652Z,31.80
2017-07-09T09:11:23.175Z,33.63
2017-07-09T09:13:50.867Z,33.93
2017-07-09T09:16:18.403Z,35.00
2017-07-09T09:18:45.952Z,31.77
2017-07-09T09:21:13.636Z,32.40
2017-07-09T09:23:41.159Z,29.67
2017-07-09T09:26:08.868Z,29.60
2017-07-09T09:28:36.399Z,30.57
2017-07-09T09:31:03.944Z,29.90
2017-07-09T09:33:31.484Z,30.00
2017-07-09T09:35:59.435Z,28.50
2017-07-09T09:38:27.376Z,27.17
2017-07-09T09:40:55.328Z,27.93
2017-07-09T09:43:22.866Z,31.40
2017-07-09T09:45:50.401Z,30.83
2017-07-09T09:48:18.349Z,27.17
2017-07-09T09:50:45.882Z,26.03
2017-07-09T09:53:13.444Z,27.43
2017-07-09T09:55:40.965Z,24.90
2017-07-09T09:58:08.506Z,27.20
2017-07-09T10:00:36.473Z,26.70
2017-07-09T10:03:04.508Z,27.27
2017-07-09T10:05:32.450Z,23.93
2017-07-09T10:07:59.965Z,24.23
2017-07-09T10:10:27.910Z,25.07
2017-07-09T10:12:55.424Z,24.10
2017-07-09T10:15:22.969Z,25.63
2017-07-09T10:17:50.516Z,27.90
2017-07-09T10:20:18.051Z,27.20
2017-07-09T10:22:45.983Z,27.40
2017-07-09T10:25:13.505Z,26.30
2017-07-09T10:27:41.067Z,26.17
2017-07-09T10:30:08.595Z,26.57
2017-07-09T10:32:36.552Z,27.03
2017-07-09T10:35:04.085Z,27.67
2017-07-09T10:37:31.609Z,25.07
2017-07-09T10:39:59.165Z,24.27
2017-07-09T10:42:26.692Z,22.77
2017-07-09T10:44:54.252Z,23.23
2017-07-09T10:47:21.779Z,24.17
2017-07-09T10:49:49.325Z,25.53
2017-07-09T10:52:16.849Z,23.77
2017-07-09T10:54:44.413Z,25.07
2017-07-09T10:57:11.948Z,24.17
2017-07-09T10:59:39.477Z,24.07
2017-07-09T11:02:07.032Z,23.17
2017-07-09T11:04:34.551Z,22.73
2017-07-09T11:07:02.097Z,23.27
2017-07-09T11:09:29.620Z,24.00
2017-07-09T11:11:57.162Z,27.37
2017-07-09T11:14:24.685Z,21.50
2017-07-09T11:16:52.233Z,24.40
2017-07-09T11:19:19.775Z,23.70
2017-07-09T11:21:47.318Z,23.47
2017-07-09T11:24:14.864Z,22.60
2017-07-09T11:26:42.405Z,23.40
2017-07-09T11:29:09.946Z,20.87
2017-07-09T11:31:37.480Z,19.87
2017-07-09T11:34:05.021Z,20.60
2017-07-09T11:36:32.940Z,22.17
2017-07-09T11:39:00.509Z,23.47
2017-07-09T11:41:28.035Z,21.00
2017-07-09T11:43:55.548Z,19.83
2017-07-09T11:46:23.112Z,21.17
2017-07-09T11:48:50.644Z,20.03
2017-07-09T11:51:18.181Z,22.63
2017-07-09T11:53:45.711Z,21.23
2017-07-09T11:56:13.248Z,18.83
2017-07-09T11:58:41.170Z,21.03
2017-07-09T12:01:08.715Z,21.67
2017-07-09T12:03:36.227Z,19.33
2017-07-09T12:06:04.157Z,21.87
2017-07-09T12:08:31.704Z,20.33
2017-07-09T12:10:59.226Z,21.57
2017-07-09T12:13:27.159Z,19.67
2017-07-09T12:15:54.692Z,21.97
2017-07-09T12:18:22.223Z,20.03
2017-07-09T12:20:49.753Z,18.90
2017-07-09T12:23:17.347Z,20.47
2017-07-09T12:25:44.865Z,23.37
2017-07-09T12:28:12.388Z,19.20
2017-07-09T12:30:39.935Z,20.13
2017-07-09T12:33:07.469Z,18.83
2017-07-09T12:35:35.029Z,20.83
2017-07-09T12:38:02.561Z,20.43
2017-07-09T12:40:30.506Z,19.80
2017-07-09T12:42:58.040Z,17.03
2017-07-09T12:45:25.585Z,19.20
2017-07-09T12:47:53.121Z,17.30
2017-07-09T12:50:20.662Z,20.60
2017-07-09T12:52:48.600Z,19.47
2017-07-09T12:55:16.121Z,17.93
2017-07-09T12:57:43.673Z,17.90
2017-07-09T13:00:11.204Z,19.43
2017-07-09T13:02:39.143Z,21.63
2017-07-09T13:05:06.664Z,18.80
2017-07-09T13:07:34.238Z,15.80
2017-07-09T13:10:01.765Z,15.97
2017-07-09T13:12:29.309Z,15.67
2017-07-09T13:14:57.246Z,16.43
2017-07-09T13:17:24.769Z,16.23
2017-07-09T13:19:52.304Z,16.30
2017-07-09T13:22:19.862Z,17.63
2017-07-09T13:24:47.411Z,15.40
2017-07-09T13:27:15.317Z,16.73
2017-07-09T13:29:42.849Z,15.40
2017-07-09T13:32:10.389Z,16.10
2017-07-09T13:34:38.336Z,17.07
2017-07-09T13:37:05.872Z,16.20
2017-07-09T13:39:33.517Z,15.97
2017-07-09T13:42:01.098Z,16.00
2017-07-09T13:44:28.640Z,14.97
2017-07-09T13:46:56.198Z,14.67
2017-07-09T13:49:23.737Z,14.60
2017-07-09T13:51:51.393Z,16.10
2017-07-09T13:54:18.929Z,15.30
2017-07-09T13:56:46.909Z,15.57
2017-07-09T13:59:14.434Z,15.63
2017-07-09T14:01:41.991Z,15.07
2017-07-09T14:04:09.520Z,17.17
2017-07-09T14:06:37.120Z,17.30
2017-07-09T14:09:04.633Z,15.07
2017-07-09T14:11:32.172Z,14.70
2017-07-09T14:13:59.724Z,15.43
2017-07-09T14:16:27.269Z,14.63
2017-07-09T14:18:54.849Z,16.20
2017-07-09T14:21:22.372Z,16.53
2017-07-09T14:23:49.909Z,14.83
2017-07-09T14:26:17.508Z,15.63
2017-07-09T14:28:45.069Z,16.20
2017-07-09T14:31:12.600Z,15.60
2017-07-09T14:33:40.150Z,16.07
2017-07-09T14:36:07.683Z,14.30
2017-07-09T14:38:35.231Z,15.53
2017-07-09T14:41:02.800Z,14.70
2017-07-09T14:43:30.368Z,15.80
2017-07-09T14:45:57.926Z,15.10
2017-07-09T14:48:25.462Z,17.00
2017-07-09T14:50:53.003Z,15.13
2017-07-09T14:53:20.532Z,14.63
2017-07-09T14:55:48.093Z,14.53
2017-07-09T14:58:16.011Z,13.67
2017-07-09T15:00:43.579Z,14.47
2017-07-09T15:03:11.103Z,14.90
2017-07-09T15:05:38.657Z,13.97
2017-07-09T15:08:06.201Z,14.80
2017-07-09T15:10:34.108Z,16.17
2017-07-09T15:13:01.640Z,14.20
2017-07-09T15:15:29.169Z,13.40
2017-07-09T15:17:56.705Z,14.20
2017-07-09T15:20:26.414Z,13.27
2017-07-09T15:22:53.963Z,14.10
2017-07-09T15:25:21.541Z,12.80
2017-07-09T15:27:49.065Z,15.07
2017-07-09T15:30:16.652Z,12.70
2017-07-09T15:32:44.245Z,13.13
2017-07-09T15:35:12.155Z,12.33
2017-07-09T15:37:39.788Z,12.30
2017-07-09T15:40:07.417Z,11.97
2017-07-09T15:42:35.068Z,12.80
2017-07-09T15:45:02.684Z,13.00
2017-07-09T15:47:30.247Z,12.10
2017-07-09T15:49:57.867Z,12.57
2017-07-09T15:52:27.646Z,14.00
2017-07-09T15:54:55.201Z,13.20
2017-07-09T15:57:22.730Z,12.90
2017-07-09T15:59:50.420Z,12.87
2017-07-09T16:02:17.995Z,11.23
2017-07-09T16:04:45.721Z,15.30
2017-07-09T16:07:13.432Z,13.30
2017-07-09T16:09:41.496Z,13.50
2017-07-09T16:12:09.524Z,12.43
2017-07-09T16:14:37.200Z,11.50
2017-07-09T16:17:04.771Z,11.73
2017-07-09T16:19:32.358Z,11.67
2017-07-09T16:22:00.003Z,12.07
2017-07-09T16:24:27.550Z,11.87
2017-07-09T16:26:55.563Z,13.23
2017-07-09T16:29:23.208Z,11.73
2017-07-09T16:31:51.667Z,11.80
2017-07-09T16:34:19.279Z,11.13
2017-07-09T16:36:47.168Z,9.87
2017-07-09T16:39:14.817Z,10.10
2017-07-09T16:41:42.435Z,11.17
2017-07-09T16:44:10.387Z,10.23
2017-07-09T16:46:37.970Z,11.10
2017-07-09T16:49:05.928Z,9.93
2017-07-09T16:51:33.963Z,10.80
2017-07-09T16:54:01.572Z,12.80
2017-07-09T16:56:29.273Z,10.20
2017-07-09T16:58:56.913Z,10.07
2017-07-09T17:01:24.521Z,10.40
2017-07-09T17:03:52.542Z,9.47
2017-07-09T17:06:20.538Z,9.80
2017-07-09T17:08:48.120Z,10.50
2017-07-09T17:11:15.767Z,9.37
2017-07-09T17:13:43.395Z,9.97
2017-07-09T17:16:11.005Z,9.63
2017-07-09T17:18:39.450Z,9.20
2017-07-09T17:21:07.170Z,10.07
2017-07-09T17:23:34.780Z,10.60
2017-07-09T17:26:02.466Z,9.47
2017-07-09T17:28:30.028Z,11.13
2017-07-09T17:30:57.973Z,12.93
2017-07-09T17:33:25.544Z,11.67
2017-07-09T17:35:53.090Z,11.03
2017-07-09T17:38:20.649Z,11.60
2017-07-09T17:40:48.179Z,11.87
2017-07-09T17:43:15.731Z,12.37
2017-07-09T17:45:43.251Z,11.73
2017-07-09T17:48:11.247Z,12.23
2017-07-09T17:50:38.760Z,14.00
2017-07-09T17:53:06.284Z,16.10
2017-07-09T17:55:33.819Z,15.40
2017-07-09T17:58:01.474Z,12.73
2017-07-09T18:00:29.023Z,13.33
2017-07-09T18:02:56.668Z,12.50
2017-07-09T18:05:24.763Z,12.67
2017-07-09T18:07:52.297Z,12.33
2017-07-09T18:10:20.382Z,14.50
2017-07-09T18:12:47.928Z,13.50
2017-07-09T18:15:15.880Z,14.57
2017-07-09T18:17:43.561Z,13.30
2017-07-09T18:20:11.173Z,14.43
2017-07-09T18:22:38.799Z,13.00
2017-07-09T18:25:06.438Z,12.93
2017-07-09T18:27:33.986Z,13.30
2017-07-09T18:30:01.948Z,13.17
2017-07-09T18:32:29.693Z,13.90
2017-07-09T18:34:57.240Z,14.97
2017-07-09T18:37:24.945Z,14.40
2017-07-09T18:39:52.620Z,14.90
2017-07-09T18:42:20.746Z,14.13
2017-07-09T18:44:48.306Z,14.23
2017-07-09T18:47:16.024Z,15.90
2017-07-09T18:49:43.561Z,14.53
2017-07-09T18:52:11.517Z,14.40
2017-07-09T18:54:39.702Z,15.70
2017-07-09T18:57:07.483Z,16.00
2017-07-09T18:59:35.033Z,17.17
2017-07-09T19:02:02.963Z,14.73
2017-07-09T19:04:30.505Z,15.50
2017-07-09T19:06:58.072Z,15.30
2017-07-09T19:09:25.616Z,16.33
2017-07-09T19:11:53.295Z,14.80
2017-07-09T19:14:20.849Z,14.40
2017-07-09T19:16:48.397Z,14.00
2017-07-09T19:19:15.947Z,13.83
2017-07-09T19:21:43.493Z,15.13
2017-07-09T19:24:11.030Z,14.30
2017-07-09T19:26:39.610Z,14.10
2017-07-09T19:29:07.841Z,14.30
2017-07-09T19:31:35.496Z,16.20
2017-07-09T19:34:03.040Z,15.63
2017-07-09T19:36:30.561Z,14.63
2017-07-09T19:38:58.084Z,15.47
2017-07-09T19:41:25.629Z,14.37
2017-07-09T19:43:53.152Z,14.20
2017-07-09T19:46:20.710Z,14.07
2017-07-09T19:48:48.244Z,13.17
2017-07-09T19:51:16.204Z,13.20
2017-07-09T19:53:43.742Z,12.87
2017-07-09T19:56:11.285Z,12.90
2017-07-09T19:58:38.813Z,11.73
2017-07-09T20:01:06.356Z,11.83
2017-07-09T20:03:33.899Z,11.90
2017-07-09T20:06:04.163Z,12.83
2017-07-09T20:08:35.656Z,12.20
2017-07-09T20:11:03.194Z,13.50
2017-07-09T20:13:30.819Z,13.23
2017-07-09T20:15:58.414Z,13.20
2017-07-09T20:18:25.984Z,12.70
2017-07-09T20:20:53.554Z,13.03
2017-07-09T20:23:21.123Z,13.30
2017-07-09T20:25:50.638Z,12.93
2017-07-09T20:28:18.598Z,12.63
2017-07-09T20:30:46.164Z,13.03
2017-07-09T20:33:14.102Z,14.97
2017-07-09T20:35:41.660Z,13.50
2017-07-09T20:38:09.221Z,14.00
2017-07-09T20:40:36.785Z,12.83
2017-07-09T20:43:04.304Z,14.57
2017-07-09T20:45:31.840Z,14.10
2017-07-09T20:47:59.420Z,13.10
2017-07-09T20:50:27.108Z,12.00
2017-07-09T20:52:54.641Z,13.10
2017-07-09T20:55:22.173Z,13.23
2017-07-09T20:57:49.711Z,13.90
2017-07-09T21:00:17.654Z,13.73
2017-07-09T21:02:45.202Z,13.03
2017-07-09T21:05:12.858Z,12.97
2017-07-09T21:07:40.401Z,13.30
2017-07-09T21:10:07.937Z,12.80
2017-07-09T21:12:35.502Z,13.93
2017-07-09T21:15:03.035Z,14.77
2017-07-09T21:17:30.960Z,14.07
2017-07-09T21:19:58.517Z,13.30
2017-07-09T21:22:26.046Z,14.23
2017-07-09T21:24:53.582Z,14.27
2017-07-09T21:27:21.132Z,13.73
2017-07-09T21:29:48.839Z,14.23
2017-07-09T21:32:16.377Z,14.50
2017-07-09T21:34:43.936Z,14.13
2017-07-09T21:37:11.566Z,14.50
2017-07-09T21:39:39.156Z,14.00
2017-07-09T21:42:06.694Z,14.50
2017-07-09T21:44:34.252Z,14.70
2017-07-09T21:47:02.239Z,14.70
2017-07-09T21:49:29.800Z,14.07
2017-07-09T21:51:57.339Z,14.67
2017-07-09T21:54:25.255Z,13.30
2017-07-09T21:56:52.820Z,14.20
2017-07-09T21:59:20.360Z,13.50
2017-07-09T22:01:47.888Z,14.10
2017-07-09T22:04:15.435Z,14.43
2017-07-09T22:06:43.413Z,14.27
2017-07-09T22:09:10.950Z,14.70
2017-07-09T22:11:38.496Z,15.10
2017-07-09T22:14:06.129Z,14.60
2017-07-09T22:16:33.661Z,14.10
2017-07-09T22:19:01.210Z,14.60
2017-07-09T22:21:28.754Z,15.60
2017-07-09T22:23:56.286Z,14.57
2017-07-09T22:26:23.839Z,15.07
2017-07-09T22:28:51.372Z,14.07
2017-07-09T22:31:18.941Z,14.77
2017-07-09T22:33:46.455Z,14.77
2017-07-09T22:36:14.026Z,14.20
2017-07-09T22:38:41.556Z,14.50
2017-07-09T22:41:09.532Z,14.47
2017-07-09T22:43:37.453Z,14.07
2017-07-09T22:46:04.997Z,13.90
2017-07-09T22:48:32.551Z,14.60
2017-07-09T22:51:00.105Z,14.33
2017-07-09T22:53:27.653Z,13.67
2017-07-09T22:55:55.179Z,14.33
2017-07-09T22:58:23.146Z,15.77
2017-07-09T23:00:51.081Z,15.53
2017-07-09T23:03:18.635Z,26.53
2017-07-09T23:05:46.163Z,24.70
2017-07-09T23:08:13.749Z,23.43
2017-07-09T23:10:41.285Z,22.47
2017-07-09T23:13:08.809Z,24.27
2017-07-09T23:15:36.738Z,30.13
2017-07-09T23:18:04.261Z,30.03
2017-07-09T23:20:31.806Z,30.90
2017-07-09T23:22:59.336Z,34.77
2017-07-09T23:25:26.891Z,34.30
2017-07-09T23:27:54.416Z,30.30
2017-07-09T23:30:21.993Z,33.90
2017-07-09T23:32:49.529Z,32.43
2017-07-09T23:35:17.088Z,33.77
2017-07-09T23:37:44.611Z,33.57
2017-07-09T23:40:12.560Z,33.60
2017-07-09T23:42:40.494Z,36.60
2017-07-09T23:45:08.129Z,36.13
2017-07-09T23:47:35.669Z,51.50
2017-07-09T23:50:03.196Z,56.70
2017-07-09T23:52:30.766Z,52.53
2017-07-09T23:54:58.705Z,56.00
2017-07-09T23:57:26.263Z,57.23
2017-07-09T23:59:53.805Z,63.33
